Allegany, Oregon
Current Conditions -  °F | °C
As of 4:55 PM on Thursday 30 Oct 2014 (Local Time) from KOTH Reporting Station
Overcast Overcast  
Wind Chill: 61°   Ceiling: 5500
Heat Index: 61°   Visibility: 10mi
Dew Point: 61°   Wind: 7mph
Humidity: 100%   Direction: 170°S
Pressure: 29.84"   Gusts: NA
Location:  43.43°N, 124.03°W
Report Text: KOTH 302355Z 17006KT 10SM SCT016 BKN055 OVC120 16/16 A2984 RMK AO1 60001 10180 20160 401800140 57003
Loading
Personal Weather Stations






























Interactive Weather Map
Tropical Storm Tracking
New forecast layout! Learn more

10-Day Weather Forecast

Advertisements
Track Severe Weather on mobile